sensor_id;sensor_type;location;lat;lon;timestamp;pressure;altitude;pressure_sealevel;temperature;humidity
39949;BME280;29070;48.102;-1.652;2023-03-11T00:03:28;100386.97;;;4.92;75.10
39949;BME280;29070;48.102;-1.652;2023-03-11T00:08:29;100421.09;;;4.97;75.07
39949;BME280;29070;48.102;-1.652;2023-03-11T00:13:30;100389.53;;;5.01;75.23
39949;BME280;29070;48.102;-1.652;2023-03-11T00:18:30;100415.22;;;5.04;75.33
39949;BME280;29070;48.102;-1.652;2023-03-11T00:23:31;100357.97;;;5.04;75.30
39949;BME280;29070;48.102;-1.652;2023-03-11T00:28:31;100432.44;;;5.05;75.38
39949;BME280;29070;48.102;-1.652;2023-03-11T00:33:32;100476.34;;;5.00;75.29
39949;BME280;29070;48.102;-1.652;2023-03-11T00:38:32;100443.50;;;4.99;75.45
39949;BME280;29070;48.102;-1.652;2023-03-11T00:43:32;100417.16;;;4.93;75.32
39949;BME280;29070;48.102;-1.652;2023-03-11T00:48:33;100463.03;;;4.94;75.56
39949;BME280;29070;48.102;-1.652;2023-03-11T00:53:33;100465.47;;;4.96;75.72
39949;BME280;29070;48.102;-1.652;2023-03-11T00:58:34;100434.41;;;5.03;76.10
39949;BME280;29070;48.102;-1.652;2023-03-11T01:03:35;100396.19;;;5.03;75.82
39949;BME280;29070;48.102;-1.652;2023-03-11T01:08:36;100404.63;;;5.05;76.02
39949;BME280;29070;48.102;-1.652;2023-03-11T01:13:37;100392.13;;;5.01;76.21
39949;BME280;29070;48.102;-1.652;2023-03-11T01:18:39;100417.97;;;5.02;76.16
39949;BME280;29070;48.102;-1.652;2023-03-11T01:23:40;100443.19;;;5.02;76.12
39949;BME280;29070;48.102;-1.652;2023-03-11T01:28:40;100427.72;;;5.08;76.37
39949;BME280;29070;48.102;-1.652;2023-03-11T01:33:41;100435.19;;;5.11;76.26
39949;BME280;29070;48.102;-1.652;2023-03-11T01:38:41;100415.84;;;5.14;76.38
39949;BME280;29070;48.102;-1.652;2023-03-11T01:48:55;100374.53;;;5.11;76.60
39949;BME280;29070;48.102;-1.652;2023-03-11T01:53:59;100383.66;;;5.07;76.38
39949;BME280;29070;48.102;-1.652;2023-03-11T01:59:00;100364.47;;;5.08;76.69
39949;BME280;29070;48.102;-1.652;2023-03-11T02:04:02;100366.25;;;5.07;76.52
39949;BME280;29070;48.102;-1.652;2023-03-11T02:09:02;100362.06;;;5.06;76.86
39949;BME280;29070;48.102;-1.652;2023-03-11T02:14:05;100360.25;;;5.07;76.86
39949;BME280;29070;48.102;-1.652;2023-03-11T02:19:19;100375.06;;;5.06;76.73
39949;BME280;29070;48.102;-1.652;2023-03-11T02:24:33;100379.09;;;5.09;76.99
39949;BME280;29070;48.102;-1.652;2023-03-11T02:29:35;100359.25;;;5.08;76.99
39949;BME280;29070;48.102;-1.652;2023-03-11T02:34:38;100359.94;;;5.10;77.09
39949;BME280;29070;48.102;-1.652;2023-03-11T02:44:41;100342.38;;;5.12;77.20
39949;BME280;29070;48.102;-1.652;2023-03-11T02:49:43;100350.81;;;5.06;77.11
39949;BME280;29070;48.102;-1.652;2023-03-11T02:54:43;100352.13;;;5.10;77.10
39949;BME280;29070;48.102;-1.652;2023-03-11T02:59:44;100343.66;;;5.08;77.30
39949;BME280;29070;48.102;-1.652;2023-03-11T03:04:44;100359.75;;;5.11;77.66
39949;BME280;29070;48.102;-1.652;2023-03-11T03:09:44;100436.50;;;5.07;77.54
39949;BME280;29070;48.102;-1.652;2023-03-11T03:14:45;100412.94;;;5.09;77.58
39949;BME280;29070;48.102;-1.652;2023-03-11T03:19:45;100350.16;;;5.12;77.73
39949;BME280;29070;48.102;-1.652;2023-03-11T03:24:45;100380.56;;;5.11;77.73
39949;BME280;29070;48.102;-1.652;2023-03-11T03:29:46;100417.31;;;5.08;77.67
39949;BME280;29070;48.102;-1.652;2023-03-11T03:34:46;100435.69;;;4.99;77.52
39949;BME280;29070;48.102;-1.652;2023-03-11T03:39:46;100439.13;;;4.99;77.23
39949;BME280;29070;48.102;-1.652;2023-03-11T03:44:47;100430.50;;;4.99;77.84
39949;BME280;29070;48.102;-1.652;2023-03-11T03:49:47;100455.53;;;5.00;77.92
39949;BME280;29070;48.102;-1.652;2023-03-11T03:54:48;100441.88;;;5.06;78.16
39949;BME280;29070;48.102;-1.652;2023-03-11T03:59:48;100431.78;;;5.11;78.27
39949;BME280;29070;48.102;-1.652;2023-03-11T04:04:49;100419.09;;;5.16;78.34
39949;BME280;29070;48.102;-1.652;2023-03-11T04:09:49;100424.28;;;5.16;78.47
39949;BME280;29070;48.102;-1.652;2023-03-11T04:14:49;100413.56;;;5.19;78.37
39949;BME280;29070;48.102;-1.652;2023-03-11T04:19:50;100383.94;;;5.20;78.30
39949;BME280;29070;48.102;-1.652;2023-03-11T04:24:50;100373.91;;;5.17;78.29
39949;BME280;29070;48.102;-1.652;2023-03-11T04:29:50;100381.03;;;5.15;78.16
39949;BME280;29070;48.102;-1.652;2023-03-11T04:34:51;100386.41;;;5.13;78.45
39949;BME280;29070;48.102;-1.652;2023-03-11T04:39:51;100392.59;;;5.12;78.36
39949;BME280;29070;48.102;-1.652;2023-03-11T04:44:52;100394.56;;;5.10;78.28
39949;BME280;29070;48.102;-1.652;2023-03-11T04:49:52;100386.91;;;5.09;78.41
39949;BME280;29070;48.102;-1.652;2023-03-11T04:54:55;100391.44;;;5.15;78.50
39949;BME280;29070;48.102;-1.652;2023-03-11T04:59:55;100393.88;;;5.16;78.74
39949;BME280;29070;48.102;-1.652;2023-03-11T05:04:55;100387.88;;;5.16;79.01
39949;BME280;29070;48.102;-1.652;2023-03-11T05:09:56;100388.66;;;5.16;78.55
39949;BME280;29070;48.102;-1.652;2023-03-11T05:14:56;100392.91;;;5.09;78.85
39949;BME280;29070;48.102;-1.652;2023-03-11T05:19:56;100390.47;;;5.08;78.78
39949;BME280;29070;48.102;-1.652;2023-03-11T05:24:57;100404.97;;;5.10;78.81
39949;BME280;29070;48.102;-1.652;2023-03-11T05:29:57;100423.00;;;5.12;78.99
39949;BME280;29070;48.102;-1.652;2023-03-11T05:34:57;100427.84;;;5.15;78.82
39949;BME280;29070;48.102;-1.652;2023-03-11T05:39:58;100428.53;;;5.17;78.89
39949;BME280;29070;48.102;-1.652;2023-03-11T05:44:58;100433.22;;;5.22;79.04
39949;BME280;29070;48.102;-1.652;2023-03-11T05:49:59;100441.50;;;5.25;79.39
39949;BME280;29070;48.102;-1.652;2023-03-11T05:54:59;100444.56;;;5.29;79.37
39949;BME280;29070;48.102;-1.652;2023-03-11T06:00:00;100441.81;;;5.30;79.17
39949;BME280;29070;48.102;-1.652;2023-03-11T06:05:00;100457.44;;;5.30;79.44
39949;BME280;29070;48.102;-1.652;2023-03-11T06:10:02;100440.53;;;5.26;79.32
39949;BME280;29070;48.102;-1.652;2023-03-11T06:15:04;100436.94;;;5.27;79.05
39949;BME280;29070;48.102;-1.652;2023-03-11T06:20:06;100439.22;;;5.30;79.31
39949;BME280;29070;48.102;-1.652;2023-03-11T06:25:07;100427.19;;;5.29;79.37
39949;BME280;29070;48.102;-1.652;2023-03-11T06:30:08;100441.00;;;5.30;79.49
39949;BME280;29070;48.102;-1.652;2023-03-11T06:35:09;100443.44;;;5.31;79.50
39949;BME280;29070;48.102;-1.652;2023-03-11T06:40:10;100452.69;;;5.34;79.62
39949;BME280;29070;48.102;-1.652;2023-03-11T06:45:11;100449.47;;;5.32;79.55
39949;BME280;29070;48.102;-1.652;2023-03-11T06:50:11;100441.31;;;5.35;79.59
39949;BME280;29070;48.102;-1.652;2023-03-11T06:55:12;100444.72;;;5.35;79.57
39949;BME280;29070;48.102;-1.652;2023-03-11T07:00:13;100434.00;;;5.39;79.83
39949;BME280;29070;48.102;-1.652;2023-03-11T07:05:13;100438.84;;;5.42;79.82
39949;BME280;29070;48.102;-1.652;2023-03-11T07:10:14;100440.94;;;5.46;79.94
39949;BME280;29070;48.102;-1.652;2023-03-11T07:15:14;100440.16;;;5.46;79.85
39949;BME280;29070;48.102;-1.652;2023-03-11T07:20:15;100441.44;;;5.42;79.99
39949;BME280;29070;48.102;-1.652;2023-03-11T07:25:15;100443.41;;;5.40;79.86
39949;BME280;29070;48.102;-1.652;2023-03-11T07:30:16;100458.06;;;5.41;80.02
39949;BME280;29070;48.102;-1.652;2023-03-11T07:35:16;100462.09;;;5.43;80.17
39949;BME280;29070;48.102;-1.652;2023-03-11T07:40:17;100461.09;;;5.52;80.35
39949;BME280;29070;48.102;-1.652;2023-03-11T07:45:17;100465.16;;;5.55;80.33
39949;BME280;29070;48.102;-1.652;2023-03-11T07:50:17;100462.41;;;5.57;80.15
39949;BME280;29070;48.102;-1.652;2023-03-11T07:55:21;100464.16;;;5.64;80.33
39949;BME280;29070;48.102;-1.652;2023-03-11T08:00:21;100483.00;;;5.66;80.28
39949;BME280;29070;48.102;-1.652;2023-03-11T08:05:22;100498.63;;;5.75;80.53
39949;BME280;29070;48.102;-1.652;2023-03-11T08:10:22;100513.09;;;5.77;80.89
39949;BME280;29070;48.102;-1.652;2023-03-11T08:15:22;100519.09;;;5.78;80.77
39949;BME280;29070;48.102;-1.652;2023-03-11T08:20:23;100516.31;;;5.87;80.87
39949;BME280;29070;48.102;-1.652;2023-03-11T08:25:23;100525.06;;;5.95;80.93
39949;BME280;29070;48.102;-1.652;2023-03-11T08:30:24;100532.22;;;6.01;80.97
39949;BME280;29070;48.102;-1.652;2023-03-11T08:35:24;100546.41;;;6.06;80.98
39949;BME280;29070;48.102;-1.652;2023-03-11T08:40:26;100541.28;;;6.13;81.10
39949;BME280;29070;48.102;-1.652;2023-03-11T08:45:26;100541.59;;;6.18;81.00
39949;BME280;29070;48.102;-1.652;2023-03-11T08:50:29;100536.53;;;6.25;81.20
39949;BME280;29070;48.102;-1.652;2023-03-11T08:55:29;100547.91;;;6.32;81.36
39949;BME280;29070;48.102;-1.652;2023-03-11T09:00:29;100556.66;;;6.39;81.17
39949;BME280;29070;48.102;-1.652;2023-03-11T09:05:30;100554.34;;;6.44;81.27
39949;BME280;29070;48.102;-1.652;2023-03-11T09:10:30;100561.47;;;6.51;81.46
39949;BME280;29070;48.102;-1.652;2023-03-11T09:15:31;100563.41;;;6.57;81.49
39949;BME280;29070;48.102;-1.652;2023-03-11T09:20:31;100569.03;;;6.68;81.71
39949;BME280;29070;48.102;-1.652;2023-03-11T09:25:32;100579.16;;;6.86;81.65
39949;BME280;29070;48.102;-1.652;2023-03-11T09:30:32;100567.72;;;6.96;81.76
39949;BME280;29070;48.102;-1.652;2023-03-11T09:35:32;100581.31;;;7.06;81.79
39949;BME280;29070;48.102;-1.652;2023-03-11T09:40:50;100589.59;;;7.10;81.70
39949;BME280;29070;48.102;-1.652;2023-03-11T09:46:03;100583.78;;;7.22;81.60
39949;BME280;29070;48.102;-1.652;2023-03-11T09:51:16;100582.47;;;7.27;81.51
39949;BME280;29070;48.102;-1.652;2023-03-11T09:56:20;100572.31;;;7.32;81.46
39949;BME280;29070;48.102;-1.652;2023-03-11T10:01:28;100574.38;;;7.36;81.46
39949;BME280;29070;48.102;-1.652;2023-03-11T10:06:30;100580.63;;;7.50;81.91
39949;BME280;29070;48.102;-1.652;2023-03-11T10:11:48;100585.13;;;7.56;81.67
39949;BME280;29070;48.102;-1.652;2023-03-11T10:27:59;100582.81;;;7.91;82.00
39949;BME280;29070;48.102;-1.652;2023-03-11T10:38:13;100578.09;;;8.16;82.06
39949;BME280;29070;48.102;-1.652;2023-03-11T10:43:26;100589.91;;;8.27;81.99
39949;BME280;29070;48.102;-1.652;2023-03-11T10:48:27;100585.38;;;8.36;82.20
39949;BME280;29070;48.102;-1.652;2023-03-11T10:53:29;100588.41;;;8.54;82.12
39949;BME280;29070;48.102;-1.652;2023-03-11T10:58:30;100591.81;;;8.70;82.32
39949;BME280;29070;48.102;-1.652;2023-03-11T11:03:32;100588.25;;;8.77;82.01
39949;BME280;29070;48.102;-1.652;2023-03-11T11:08:32;100595.25;;;8.92;82.31
39949;BME280;29070;48.102;-1.652;2023-03-11T11:13:33;100602.63;;;9.03;82.10
39949;BME280;29070;48.102;-1.652;2023-03-11T11:18:41;100592.19;;;9.10;82.46
39949;BME280;29070;48.102;-1.652;2023-03-11T11:29:13;100593.59;;;9.34;82.59
39949;BME280;29070;48.102;-1.652;2023-03-11T11:39:51;100601.66;;;9.61;82.39
39949;BME280;29070;48.102;-1.652;2023-03-11T11:44:56;100606.38;;;9.72;82.35
39949;BME280;29070;48.102;-1.652;2023-03-11T11:50:03;100609.66;;;9.81;82.44
39949;BME280;29070;48.102;-1.652;2023-03-11T11:55:12;100620.38;;;9.86;82.11
39949;BME280;29070;48.102;-1.652;2023-03-11T12:05:22;100620.53;;;10.13;82.22
39949;BME280;29070;48.102;-1.652;2023-03-11T12:10:33;100619.53;;;10.20;82.54
39949;BME280;29070;48.102;-1.652;2023-03-11T12:20:50;100619.00;;;10.32;81.83
39949;BME280;29070;48.102;-1.652;2023-03-11T12:26:31;100613.22;;;10.43;82.16
39949;BME280;29070;48.102;-1.652;2023-03-11T12:31:36;100624.13;;;10.53;82.05
39949;BME280;29070;48.102;-1.652;2023-03-11T12:36:40;100617.94;;;10.74;82.38
39949;BME280;29070;48.102;-1.652;2023-03-11T12:41:43;100622.41;;;10.87;82.19
39949;BME280;29070;48.102;-1.652;2023-03-11T12:47:00;100619.00;;;10.93;82.35
39949;BME280;29070;48.102;-1.652;2023-03-11T13:07:55;100625.47;;;11.37;82.17
39949;BME280;29070;48.102;-1.652;2023-03-11T13:12:59;100627.31;;;11.30;81.97
39949;BME280;29070;48.102;-1.652;2023-03-11T13:28:43;100619.63;;;11.75;82.55
39949;BME280;29070;48.102;-1.652;2023-03-11T13:33:54;100617.56;;;11.84;82.47
39949;BME280;29070;48.102;-1.652;2023-03-11T13:39:30;100614.31;;;12.02;82.56
39949;BME280;29070;48.102;-1.652;2023-03-11T13:44:37;100614.47;;;12.20;82.68
39949;BME280;29070;48.102;-1.652;2023-03-11T13:54:48;100599.56;;;12.46;82.41
39949;BME280;29070;48.102;-1.652;2023-03-11T13:59:53;100600.91;;;12.62;82.49
39949;BME280;29070;48.102;-1.652;2023-03-11T14:05:05;100598.38;;;12.81;82.76
39949;BME280;29070;48.102;-1.652;2023-03-11T14:15:23;100602.00;;;13.11;82.69
39949;BME280;29070;48.102;-1.652;2023-03-11T14:20:25;100597.28;;;13.20;82.12
39949;BME280;29070;48.102;-1.652;2023-03-11T14:25:28;100598.88;;;13.21;82.38
39949;BME280;29070;48.102;-1.652;2023-03-11T14:30:32;100603.25;;;13.34;82.58
39949;BME280;29070;48.102;-1.652;2023-03-11T14:35:33;100602.28;;;13.53;82.51
39949;BME280;29070;48.102;-1.652;2023-03-11T14:40:35;100590.59;;;13.86;83.26
39949;BME280;29070;48.102;-1.652;2023-03-11T14:45:41;100583.69;;;14.22;83.34
39949;BME280;29070;48.102;-1.652;2023-03-11T14:50:44;100581.16;;;14.46;83.42
39949;BME280;29070;48.102;-1.652;2023-03-11T14:55:58;100592.16;;;14.61;82.88
39949;BME280;29070;48.102;-1.652;2023-03-11T15:01:04;100601.09;;;15.02;83.02
39949;BME280;29070;48.102;-1.652;2023-03-11T15:06:08;100599.03;;;15.16;82.35
39949;BME280;29070;48.102;-1.652;2023-03-11T15:16:22;100608.59;;;15.41;81.70
39949;BME280;29070;48.102;-1.652;2023-03-11T15:21:23;100607.78;;;15.52;81.73
39949;BME280;29070;48.102;-1.652;2023-03-11T15:26:29;100608.63;;;15.53;81.19
39949;BME280;29070;48.102;-1.652;2023-03-11T15:31:33;100612.41;;;15.45;80.93
39949;BME280;29070;48.102;-1.652;2023-03-11T15:36:37;100623.66;;;15.29;80.77
39949;BME280;29070;48.102;-1.652;2023-03-11T15:41:45;100631.00;;;15.27;81.00
39949;BME280;29070;48.102;-1.652;2023-03-11T15:46:46;100633.66;;;15.27;80.82
39949;BME280;29070;48.102;-1.652;2023-03-11T15:51:47;100627.34;;;15.28;80.82
39949;BME280;29070;48.102;-1.652;2023-03-11T15:56:47;100630.13;;;15.33;80.67
39949;BME280;29070;48.102;-1.652;2023-03-11T16:01:47;100628.63;;;15.37;80.84
39949;BME280;29070;48.102;-1.652;2023-03-11T16:06:48;100622.06;;;15.39;81.05
39949;BME280;29070;48.102;-1.652;2023-03-11T16:11:48;100633.47;;;15.40;80.91
39949;BME280;29070;48.102;-1.652;2023-03-11T16:16:49;100639.19;;;15.37;80.86
39949;BME280;29070;48.102;-1.652;2023-03-11T16:21:49;100635.06;;;15.41;80.96
39949;BME280;29070;48.102;-1.652;2023-03-11T16:26:50;100636.47;;;15.43;80.92
39949;BME280;29070;48.102;-1.652;2023-03-11T16:31:51;100635.97;;;15.47;80.71
39949;BME280;29070;48.102;-1.652;2023-03-11T16:36:54;100634.03;;;15.42;80.80
39949;BME280;29070;48.102;-1.652;2023-03-11T16:41:54;100635.63;;;15.43;80.70
39949;BME280;29070;48.102;-1.652;2023-03-11T16:46:54;100639.06;;;15.32;80.20
39949;BME280;29070;48.102;-1.652;2023-03-11T16:51:55;100645.38;;;15.19;80.15
39949;BME280;29070;48.102;-1.652;2023-03-11T16:56:55;100659.72;;;15.11;80.09
39949;BME280;29070;48.102;-1.652;2023-03-11T17:01:55;100651.22;;;15.09;80.09
39949;BME280;29070;48.102;-1.652;2023-03-11T17:06:56;100669.34;;;15.05;79.52
39949;BME280;29070;48.102;-1.652;2023-03-11T17:11:56;100658.66;;;15.00;79.83
39949;BME280;29070;48.102;-1.652;2023-03-11T17:16:57;100663.59;;;14.97;79.61
39949;BME280;29070;48.102;-1.652;2023-03-11T17:21:57;100683.13;;;14.96;79.47
39949;BME280;29070;48.102;-1.652;2023-03-11T17:26:58;100695.41;;;14.90;79.56
39949;BME280;29070;48.102;-1.652;2023-03-11T17:31:59;100701.50;;;14.91;79.57
39949;BME280;29070;48.102;-1.652;2023-03-11T17:36:59;100712.38;;;14.82;79.57
39949;BME280;29070;48.102;-1.652;2023-03-11T17:42:00;100723.03;;;14.76;79.57
39949;BME280;29070;48.102;-1.652;2023-03-11T17:47:00;100726.88;;;14.61;79.11
39949;BME280;29070;48.102;-1.652;2023-03-11T17:52:00;100738.50;;;14.54;79.01
39949;BME280;29070;48.102;-1.652;2023-03-11T17:57:01;100732.03;;;14.49;78.94
39949;BME280;29070;48.102;-1.652;2023-03-11T18:02:01;100733.31;;;14.47;78.85
39949;BME280;29070;48.102;-1.652;2023-03-11T18:07:02;100739.66;;;14.39;78.68
39949;BME280;29070;48.102;-1.652;2023-03-11T18:12:02;100747.31;;;14.29;78.69
39949;BME280;29070;48.102;-1.652;2023-03-11T18:17:03;100757.72;;;14.24;78.59
39949;BME280;29070;48.102;-1.652;2023-03-11T18:22:03;100765.94;;;14.09;78.25
39949;BME280;29070;48.102;-1.652;2023-03-11T18:27:04;100774.38;;;13.99;78.30
39949;BME280;29070;48.102;-1.652;2023-03-11T18:32:04;100786.81;;;13.92;78.03
39949;BME280;29070;48.102;-1.652;2023-03-11T18:37:04;100790.75;;;13.83;77.73
39949;BME280;29070;48.102;-1.652;2023-03-11T18:42:05;100793.22;;;13.78;77.77
39949;BME280;29070;48.102;-1.652;2023-03-11T18:47:05;100777.84;;;13.68;77.48
39949;BME280;29070;48.102;-1.652;2023-03-11T18:52:06;100792.09;;;13.60;77.50
39949;BME280;29070;48.102;-1.652;2023-03-11T18:57:06;100790.47;;;13.59;77.41
39949;BME280;29070;48.102;-1.652;2023-03-11T19:02:08;100788.28;;;13.56;77.10
39949;BME280;29070;48.102;-1.652;2023-03-11T19:07:09;100794.19;;;13.51;77.16
39949;BME280;29070;48.102;-1.652;2023-03-11T19:12:09;100793.44;;;13.38;77.00
39949;BME280;29070;48.102;-1.652;2023-03-11T19:17:09;100794.91;;;13.27;77.09
39949;BME280;29070;48.102;-1.652;2023-03-11T19:22:11;100797.59;;;13.20;77.23
39949;BME280;29070;48.102;-1.652;2023-03-11T19:27:12;100804.50;;;13.14;77.08
39949;BME280;29070;48.102;-1.652;2023-03-11T19:32:12;100812.63;;;13.06;77.30
39949;BME280;29070;48.102;-1.652;2023-03-11T19:37:12;100806.97;;;13.03;77.61
39949;BME280;29070;48.102;-1.652;2023-03-11T19:42:13;100817.34;;;12.97;77.65
39949;BME280;29070;48.102;-1.652;2023-03-11T19:47:13;100826.69;;;12.93;77.98
39949;BME280;29070;48.102;-1.652;2023-03-11T19:52:13;100835.00;;;12.90;78.01
39949;BME280;29070;48.102;-1.652;2023-03-11T19:57:14;100854.44;;;12.89;78.06
39949;BME280;29070;48.102;-1.652;2023-03-11T20:02:15;100859.69;;;12.89;78.17
39949;BME280;29070;48.102;-1.652;2023-03-11T20:07:15;100851.81;;;12.89;78.04
39949;BME280;29070;48.102;-1.652;2023-03-11T20:12:16;100847.75;;;12.87;78.17
39949;BME280;29070;48.102;-1.652;2023-03-11T20:17:16;100853.22;;;12.85;78.21
39949;BME280;29070;48.102;-1.652;2023-03-11T20:22:16;100864.63;;;12.79;78.45
39949;BME280;29070;48.102;-1.652;2023-03-11T20:27:16;100858.53;;;12.72;78.33
39949;BME280;29070;48.102;-1.652;2023-03-11T20:32:17;100851.66;;;12.71;78.65
39949;BME280;29070;48.102;-1.652;2023-03-11T20:37:17;100867.84;;;12.68;78.62
39949;BME280;29070;48.102;-1.652;2023-03-11T20:42:17;100869.09;;;12.65;78.68
39949;BME280;29070;48.102;-1.652;2023-03-11T20:47:18;100882.03;;;12.60;78.58
39949;BME280;29070;48.102;-1.652;2023-03-11T20:52:19;100882.03;;;12.53;78.86
39949;BME280;29070;48.102;-1.652;2023-03-11T20:57:19;100901.91;;;12.49;78.85
39949;BME280;29070;48.102;-1.652;2023-03-11T21:02:19;100902.09;;;12.41;79.33
39949;BME280;29070;48.102;-1.652;2023-03-11T21:07:20;100922.75;;;12.37;79.49
39949;BME280;29070;48.102;-1.652;2023-03-11T21:12:20;100934.69;;;12.33;79.79
39949;BME280;29070;48.102;-1.652;2023-03-11T21:17:21;100932.25;;;12.32;79.85
39949;BME280;29070;48.102;-1.652;2023-03-11T21:22:21;100929.41;;;12.27;79.88
39949;BME280;29070;48.102;-1.652;2023-03-11T21:27:22;100935.88;;;12.17;80.27
39949;BME280;29070;48.102;-1.652;2023-03-11T21:32:27;100939.94;;;12.13;80.25
39949;BME280;29070;48.102;-1.652;2023-03-11T21:37:27;100964.63;;;12.12;80.66
39949;BME280;29070;48.102;-1.652;2023-03-11T21:42:28;100962.41;;;12.09;80.64
39949;BME280;29070;48.102;-1.652;2023-03-11T21:47:29;100974.72;;;12.09;80.75
39949;BME280;29070;48.102;-1.652;2023-03-11T21:52:29;100978.19;;;12.09;80.84
39949;BME280;29070;48.102;-1.652;2023-03-11T21:57:29;100987.31;;;12.13;81.04
39949;BME280;29070;48.102;-1.652;2023-03-11T22:02:30;100983.88;;;12.13;81.17
39949;BME280;29070;48.102;-1.652;2023-03-11T22:07:30;100994.38;;;12.06;81.04
39949;BME280;29070;48.102;-1.652;2023-03-11T22:12:30;100990.94;;;12.06;81.16
39949;BME280;29070;48.102;-1.652;2023-03-11T22:17:32;100989.28;;;12.05;81.30
39949;BME280;29070;48.102;-1.652;2023-03-11T22:22:32;100996.38;;;12.04;81.28
39949;BME280;29070;48.102;-1.652;2023-03-11T22:27:33;101001.44;;;11.99;81.22
39949;BME280;29070;48.102;-1.652;2023-03-11T22:32:34;101005.66;;;12.00;81.40
39949;BME280;29070;48.102;-1.652;2023-03-11T22:37:34;101008.94;;;12.02;81.46
39949;BME280;29070;48.102;-1.652;2023-03-11T22:42:35;100990.72;;;12.00;81.67
39949;BME280;29070;48.102;-1.652;2023-03-11T22:47:36;100995.78;;;12.02;81.51
39949;BME280;29070;48.102;-1.652;2023-03-11T22:52:36;100994.72;;;11.96;81.47
39949;BME280;29070;48.102;-1.652;2023-03-11T22:57:36;101010.09;;;11.93;81.38
39949;BME280;29070;48.102;-1.652;2023-03-11T23:02:37;101018.72;;;11.80;81.55
39949;BME280;29070;48.102;-1.652;2023-03-11T23:07:38;101024.72;;;11.67;81.64
39949;BME280;29070;48.102;-1.652;2023-03-11T23:12:39;101024.91;;;11.59;81.61
39949;BME280;29070;48.102;-1.652;2023-03-11T23:17:40;101043.31;;;11.59;81.86
39949;BME280;29070;48.102;-1.652;2023-03-11T23:22:41;101041.66;;;11.58;81.86
39949;BME280;29070;48.102;-1.652;2023-03-11T23:27:43;101060.00;;;11.51;81.72
39949;BME280;29070;48.102;-1.652;2023-03-11T23:32:44;101075.97;;;11.50;81.95
39949;BME280;29070;48.102;-1.652;2023-03-11T23:37:48;101072.16;;;11.52;82.13
39949;BME280;29070;48.102;-1.652;2023-03-11T23:42:49;101078.41;;;11.51;82.00
39949;BME280;29070;48.102;-1.652;2023-03-11T23:47:50;101072.53;;;11.49;82.02
39949;BME280;29070;48.102;-1.652;2023-03-11T23:52:50;101085.63;;;11.42;81.89
39949;BME280;29070;48.102;-1.652;2023-03-11T23:57:50;101084.03;;;11.41;81.97
